Time;durP1;ratioP1;P1;durP2;ratioP2;P2;SDS_P1;SDS_P2;PMS_P1;PMS_P2;Temp;Humidity;BMP_temperature;BMP_pressure;BME280_temperature;BME280_humidity;BME280_pressure;Samples;Min_cycle;Max_cycle;Signal;HPM_P1;HPM_P2
2022/06/08 00:00:47;;;;;;;16.05;5.10;;;;;;;12.47;58.70;99714.88;5053394;28;20081;-80
2022/06/08 00:03:21;;;;;;;12.38;5.85;;;;;;;12.49;58.86;99708.72;5053201;28;20052;-81
2022/06/08 00:05:48;;;;;;;15.68;5.75;;;;;;;12.48;58.70;99700.91;5052051;28;20110;-81
2022/06/08 00:08:16;;;;;;;16.48;5.50;;;;;;;12.57;58.71;99710.47;5053063;28;20554;-81
2022/06/08 00:10:43;;;;;;;12.18;5.28;;;;;;;12.50;58.83;99697.41;5052815;28;20045;-82
2022/06/08 00:13:09;;;;;;;12.80;4.90;;;;;;;12.52;58.70;99717.47;5053300;28;20049;-82
2022/06/08 00:15:37;;;;;;;13.57;5.68;;;;;;;12.61;58.40;99712.19;5053222;28;20134;-82
2022/06/08 00:18:05;;;;;;;13.70;5.50;;;;;;;12.59;58.56;99700.84;5053054;28;20065;-82
2022/06/08 00:20:33;;;;;;;12.45;4.88;;;;;;;12.61;58.75;99699.94;5052958;28;20048;-81
2022/06/08 00:23:00;;;;;;;12.35;5.32;;;;;;;12.61;58.78;99702.56;5052730;28;20056;-81
2022/06/08 00:25:28;;;;;;;12.27;5.47;;;;;;;12.59;58.75;99699.06;5053368;28;20099;-81
2022/06/08 00:27:55;;;;;;;13.90;5.85;;;;;;;12.64;58.74;99709.53;5053168;28;20049;-82
2022/06/08 00:30:22;;;;;;;12.40;5.78;;;;;;;12.58;58.90;99694.69;5053261;28;20060;-81
2022/06/08 00:32:50;;;;;;;16.60;6.45;;;;;;;12.55;58.98;99679.00;5052405;28;20063;-82
2022/06/08 00:35:17;;;;;;;20.42;6.45;;;;;;;12.59;58.94;99703.44;5051736;28;20048;-82
2022/06/08 00:37:44;;;;;;;16.90;5.80;;;;;;;12.55;58.50;99696.50;5035808;28;20087;-83
2022/06/08 00:40:14;;;;;;;16.70;6.32;;;;;;;12.58;58.06;99701.69;5051006;28;20430;-83
2022/06/08 00:42:42;;;;;;;;;;;;;;;12.37;58.27;99708.84;5053480;28;20049;-82
2022/06/08 00:45:13;;;;;;;21.65;5.93;;;;;;;12.29;58.37;99685.31;5051604;28;19929;-82
2022/06/08 00:47:59;;;;;;;11.68;6.00;;;;;;;12.39;58.31;99704.47;5053788;28;20084;-83
2022/06/08 00:50:52;;;;;;;12.30;5.55;;;;;;;12.45;58.53;99708.78;5034880;28;20049;-82
2022/06/08 00:53:43;;;;;;;12.52;5.85;;;;;;;12.43;58.33;99718.38;5049577;28;20398;-84
2022/06/08 00:56:17;;;;;;;12.48;6.07;;;;;;;12.43;58.90;99716.66;5040017;28;20501;-82
2022/06/08 00:58:45;;;;;;;14.93;6.00;;;;;;;12.46;58.85;99710.53;5032886;28;20081;-82
2022/06/08 01:01:13;;;;;;;12.13;5.90;;;;;;;12.38;58.45;99702.72;5031662;28;20053;-82
2022/06/08 01:03:41;;;;;;;11.77;5.38;;;;;;;12.49;58.76;99707.88;5031519;28;20054;-82
2022/06/08 01:06:20;;;;;;;17.75;6.00;;;;;;;12.47;58.70;99704.41;5063943;28;20050;-81
2022/06/08 01:08:57;;;;;;;11.70;5.82;;;;;;;12.49;58.84;99711.34;5031421;28;20481;-81
2022/06/08 01:11:34;;;;;;;14.73;6.60;;;;;;;12.55;59.06;99706.97;5030315;28;20054;-81
2022/06/08 01:14:05;;;;;;;13.23;6.18;;;;;;;12.49;58.64;99685.16;5030601;28;20085;-80
2022/06/08 01:16:32;;;;;;;;;;;;;;;12.44;58.17;99702.66;5030926;28;20053;-81
2022/06/08 01:19:04;;;;;;;12.48;6.00;;;;;;;12.65;58.08;99711.28;5030536;28;19925;-81
2022/06/08 01:21:32;;;;;;;20.60;6.28;;;;;;;12.77;57.75;99711.16;5030746;28;20069;-81
2022/06/08 01:24:10;;;;;;;12.80;5.90;;;;;;;12.85;57.98;99711.97;5034369;28;20136;-81
2022/06/08 01:26:46;;;;;;;15.10;6.05;;;;;;;12.92;57.79;99704.91;5035349;28;20119;-81
2022/06/08 01:29:29;;;;;;;13.80;5.78;;;;;;;13.00;57.71;99704.88;5033967;28;20053;-83
2022/06/08 01:32:05;;;;;;;16.58;6.70;;;;;;;13.11;58.23;99700.38;5067570;28;20064;-83
2022/06/08 01:35:00;;;;;;;16.73;6.72;;;;;;;13.20;57.95;99707.28;5035094;28;20131;-81
2022/06/08 01:37:31;;;;;;;15.65;6.20;;;;;;;13.30;57.66;99712.47;5034051;28;20057;-81
2022/06/08 01:40:10;;;;;;;;;;;;;;;13.19;57.35;99710.81;5035647;28;20061;-81
2022/06/08 01:42:56;;;;;;;11.00;5.30;;;;;;;13.32;56.83;99710.69;5034054;28;20305;-83
2022/06/08 01:45:45;;;;;;;12.52;5.75;;;;;;;13.45;56.56;99714.06;5067526;28;20052;-82
2022/06/08 01:48:51;;;;;;;14.63;6.05;;;;;;;13.73;56.12;99708.50;5035291;28;20076;-81
2022/06/08 01:51:27;;;;;;;14.38;5.72;;;;;;;14.08;55.64;99712.44;5030534;28;20509;-80
2022/06/08 01:54:16;;;;;;;15.18;6.05;;;;;;;14.33;54.68;99712.97;5050316;28;20061;-81
2022/06/08 01:57:07;;;;;;;14.65;6.00;;;;;;;14.65;53.83;99707.28;5033741;28;20050;-81
2022/06/08 01:59:47;;;;;;;17.85;5.43;;;;;;;15.24;52.67;99712.41;5035061;28;20053;-82
2022/06/08 02:02:34;;;;;;;;;;;;;;;15.13;52.91;99720.47;5035107;28;20444;-83
2022/06/08 02:05:21;;;;;;;15.23;5.80;;;;;;;15.29;53.19;99718.47;5033481;28;20361;-83
2022/06/08 02:08:11;;;;;;;13.95;5.75;;;;;;;18.83;45.82;99713.09;5033776;28;20075;-82
2022/06/08 02:10:41;;;;;;;18.13;6.40;;;;;;;22.13;38.47;99706.28;5033554;28;20049;-83
2022/06/08 02:13:19;;;;;;;11.80;6.03;;;;;;;24.43;34.60;99704.31;5034741;28;20064;-82
2022/06/08 02:15:53;;;;;;;12.93;6.43;;;;;;;26.00;31.61;99695.06;5033749;28;20085;-81
2022/06/08 02:18:28;;;;;;;16.27;6.82;;;;;;;27.34;29.41;99697.00;5066502;28;20460;-81
2022/06/08 02:21:09;;;;;;;19.63;7.55;;;;;;;27.94;29.21;99688.38;5033747;28;20413;-82
2022/06/08 02:24:11;;;;;;;15.90;7.60;;;;;;;29.05;27.93;99699.03;5035403;28;20053;-81
2022/06/08 02:26:43;;;;;;;22.08;7.93;;;;;;;30.44;25.12;99705.22;5046239;28;20025;-82
2022/06/08 02:29:15;;;;;;;16.05;6.60;;;;;;;31.45;24.00;99687.81;5075190;28;20041;-82
2022/06/08 02:31:57;;;;;;;17.85;6.93;;;;;;;31.84;23.49;99694.25;5057934;28;20053;-82
2022/06/08 02:34:41;;;;;;;14.20;7.50;;;;;;;32.21;23.33;99701.81;5043614;28;20054;-83
2022/06/08 02:37:17;;;;;;;17.70;7.50;;;;;;;33.21;21.34;99697.25;5041019;28;20049;-83
2022/06/08 02:39:54;;;;;;;22.15;8.15;;;;;;;33.84;19.99;99686.72;5033140;28;20117;-83
2022/06/08 02:42:32;;;;;;;24.75;9.05;;;;;;;34.39;20.03;99699.44;5033737;28;20144;-82
2022/06/08 02:45:14;;;;;;;21.52;8.80;;;;;;;34.83;19.64;99671.63;5016553;28;20049;-82
2022/06/08 02:47:45;;;;;;;20.17;8.38;;;;;;;35.62;18.16;99678.00;5032655;28;20077;-82
2022/06/08 02:50:19;;;;;;;18.35;8.32;;;;;;;34.25;19.23;99692.69;5032486;28;20049;-83
2022/06/08 02:52:49;;;;;;;16.70;7.90;;;;;;;30.51;23.01;99692.09;5032622;28;20417;-82
2022/06/08 02:55:26;;;;;;;23.08;8.68;;;;;;;29.13;25.22;99677.81;5016053;28;20398;-82
2022/06/08 02:58:05;;;;;;;22.15;8.45;;;;;;;29.17;24.80;99706.19;5016833;28;20050;-83
2022/06/08 03:00:42;;;;;;;17.25;8.68;;;;;;;27.07;27.53;99699.75;5033304;28;20132;-82
2022/06/08 03:03:24;;;;;;;19.85;7.95;;;;;;;25.60;29.77;99700.19;5065336;28;20065;-80
2022/06/08 03:05:57;;;;;;;17.77;8.93;;;;;;;25.14;31.44;99711.84;5032304;28;20045;-81
2022/06/08 03:08:26;;;;;;;17.25;8.27;;;;;;;24.75;32.21;99714.16;5065454;28;20053;-80
2022/06/08 03:10:58;;;;;;;23.60;10.55;;;;;;;26.46;29.41;99692.13;5031962;28;20533;-82
2022/06/08 03:13:33;;;;;;;19.13;8.80;;;;;;;28.18;26.67;99701.00;5031800;28;20471;-82
2022/06/08 03:16:04;;;;;;;24.98;9.15;;;;;;;27.96;26.76;99683.75;5032123;28;20077;-83
2022/06/08 03:18:31;;;;;;;24.48;9.60;;;;;;;30.97;23.48;99701.75;5031894;28;20138;-83
2022/06/08 03:21:01;;;;;;;21.88;9.18;;;;;;;33.06;20.79;99667.03;5032173;28;20526;-84
2022/06/08 03:23:32;;;;;;;22.27;8.95;;;;;;;35.31;18.77;99718.34;5031967;28;20084;-83
2022/06/08 03:25:59;;;;;;;25.80;9.70;;;;;;;37.13;16.89;99706.28;5031962;28;20053;-83
2022/06/08 03:28:28;;;;;;;21.23;8.80;;;;;;;36.85;16.82;99703.00;5031615;28;20454;-83
2022/06/08 03:30:56;;;;;;;24.67;8.83;;;;;;;34.55;18.78;99712.34;5033572;28;20045;-83
2022/06/08 03:33:24;;;;;;;19.60;9.68;;;;;;;33.56;19.59;99710.16;5031765;28;20303;-84
2022/06/08 03:35:51;;;;;;;25.20;12.23;;;;;;;31.16;22.06;99719.94;5031887;28;20593;-83
2022/06/08 03:38:22;;;;;;;23.60;10.07;;;;;;;30.72;23.29;99703.78;5031713;28;20073;-83
2022/06/08 03:40:51;;;;;;;28.33;9.93;;;;;;;34.33;19.78;99719.06;5031705;28;20056;-82
2022/06/08 03:43:18;;;;;;;20.05;9.40;;;;;;;36.84;17.22;99714.88;5042419;28;20625;-83
2022/06/08 03:45:49;;;;;;;21.35;8.73;;;;;;;38.44;15.75;99724.16;5050726;28;20512;-84
2022/06/08 03:48:18;;;;;;;28.35;8.93;;;;;;;39.67;14.82;99724.16;5050920;28;20053;-83
2022/06/08 03:50:48;;;;;;;;;;;;;;;40.81;15.94;99712.84;5049956;28;20052;-87
2022/06/08 03:53:21;;;;;;;20.35;8.48;;;;;;;41.78;13.05;99721.44;5057894;28;19987;-86
2022/06/08 03:55:51;;;;;;;19.67;8.07;;;;;;;42.73;12.24;99722.56;5031428;28;20520;-87
2022/06/08 03:58:26;;;;;;;13.95;7.75;;;;;;;42.72;12.03;99740.06;5045654;28;20476;-83
2022/06/08 04:00:53;;;;;;;17.95;7.50;;;;;;;41.54;12.83;99746.38;5049325;28;20147;-83
2022/06/08 04:03:21;;;;;;;17.50;6.30;;;;;;;39.89;14.20;99738.78;5052738;28;20064;-83
2022/06/08 04:05:49;;;;;;;16.95;6.85;;;;;;;39.29;14.43;99736.94;5051110;28;20811;-83
2022/06/08 04:08:21;;;;;;;20.88;6.47;;;;;;;39.85;14.48;99717.50;5050067;28;20067;-83
2022/06/08 04:10:52;;;;;;;16.13;7.07;;;;;;;40.77;13.87;99743.53;5050509;28;20049;-82
2022/06/08 04:13:20;;;;;;;14.00;6.30;;;;;;;40.71;12.65;99718.63;5050281;28;20443;-82
2022/06/08 04:15:49;;;;;;;17.25;6.43;;;;;;;37.82;14.95;99741.28;5034850;28;20052;-82
2022/06/08 04:18:24;;;;;;;9.30;6.15;;;;;;;35.15;17.98;99741.66;5052095;28;20140;-80
2022/06/08 04:20:59;;;;;;;17.42;6.20;;;;;;;32.66;19.24;99713.19;5053285;28;20053;-79
2022/06/08 04:23:35;;;;;;;11.02;5.15;;;;;;;31.04;20.46;99735.34;5051095;28;20057;-82
2022/06/08 04:26:04;;;;;;;8.63;4.10;;;;;;;29.77;20.42;99730.31;5051845;28;20106;-82
2022/06/08 04:28:33;;;;;;;7.85;4.60;;;;;;;28.59;22.51;99737.44;5051305;28;20147;-82
2022/06/08 04:31:06;;;;;;;9.82;4.68;;;;;;;28.00;23.07;99735.38;5051287;28;20057;-82
2022/06/08 04:33:36;;;;;;;9.15;4.10;;;;;;;27.51;23.28;99733.41;5051811;28;20139;-81
2022/06/08 04:36:31;;;;;;;8.18;3.95;;;;;;;26.10;24.10;99714.94;5051704;28;20516;-84
2022/06/08 04:39:09;;;;;;;6.55;3.90;;;;;;;24.99;25.22;99701.19;5082963;28;20140;-84
2022/06/08 04:41:39;;;;;;;6.47;3.70;;;;;;;24.52;26.10;99692.28;5053690;28;20053;-81
2022/06/08 04:44:06;;;;;;;7.65;3.70;;;;;;;24.63;26.69;99708.56;5051855;28;20519;-82
2022/06/08 04:49:32;;;;;;;7.50;3.80;;;;;;;24.42;26.88;99712.44;5036081;28;20111;-85
2022/06/08 04:52:02;;;;;;;5.43;3.70;;;;;;;23.84;27.67;99698.69;5053131;28;20527;-83
2022/06/08 04:54:47;;;;;;;8.75;3.70;;;;;;;23.44;28.44;99681.25;5056386;28;20049;-83
2022/06/08 04:57:16;;;;;;;10.23;3.55;;;;;;;23.36;28.74;99729.63;5058891;28;20045;-82
2022/06/08 04:59:54;;;;;;;9.80;3.40;;;;;;;22.99;29.08;99722.59;5042023;28;20103;-83
2022/06/08 05:02:44;;;;;;;7.93;3.40;;;;;;;22.70;29.81;99728.44;5023918;28;20083;-83
2022/06/08 05:05:50;;;;;;;4.55;3.30;;;;;;;22.63;30.21;99743.00;5056010;28;20440;-82
2022/06/08 05:08:25;;;;;;;9.82;3.15;;;;;;;22.36;30.65;99726.53;5055465;28;20048;-84
2022/06/08 05:10:54;;;;;;;4.88;3.55;;;;;;;22.56;30.87;99725.56;5056663;28;20075;-83
2022/06/08 05:13:30;;;;;;;6.13;3.40;;;;;;;22.56;30.97;99719.38;5056286;28;20440;-84
2022/06/08 05:16:04;;;;;;;3.97;2.72;;;;;;;22.41;30.04;99707.69;5039199;28;20518;-85
2022/06/08 05:18:34;;;;;;;4.55;2.90;;;;;;;22.33;30.33;99747.97;5055433;28;20049;-84
2022/06/08 05:21:05;;;;;;;7.50;2.30;;;;;;;22.08;30.18;99746.41;5055195;28;20049;-86
2022/06/08 05:23:36;;;;;;;4.18;2.33;;;;;;;21.90;30.62;99726.00;5058371;28;20053;-85
2022/06/08 05:26:12;;;;;;;3.60;2.40;;;;;;;21.95;30.55;99731.09;5040266;28;20053;-83
2022/06/08 05:28:43;;;;;;;2.90;2.60;;;;;;;21.81;30.63;99715.75;5057115;28;20369;-84
2022/06/08 05:31:12;;;;;;;5.87;2.97;;;;;;;22.06;30.64;99744.75;5055575;28;20048;-85
2022/06/08 05:33:45;;;;;;;7.57;2.60;;;;;;;21.93;30.87;99724.97;5055678;28;20049;-83
2022/06/08 05:36:17;;;;;;;3.90;2.30;;;;;;;22.04;30.50;99731.53;5054887;28;20496;-83
2022/06/08 05:38:47;;;;;;;5.45;2.40;;;;;;;22.02;30.96;99757.31;5054862;28;20067;-83
2022/06/08 05:41:16;;;;;;;3.90;2.33;;;;;;;21.89;30.69;99743.72;5046145;28;20045;-82
2022/06/08 05:43:43;;;;;;;3.22;2.22;;;;;;;21.91;31.10;99748.97;5036034;28;20099;-84
2022/06/08 05:46:13;;;;;;;5.77;2.33;;;;;;;21.92;31.25;99748.06;5022254;28;20053;-84
2022/06/08 05:48:53;;;;;;;2.95;2.50;;;;;;;21.91;31.46;99748.97;5037759;28;20099;-83
2022/06/08 05:51:21;;;;;;;5.43;2.38;;;;;;;21.99;31.14;99761.94;5035341;28;20081;-84
2022/06/08 05:53:49;;;;;;;5.90;1.97;;;;;;;22.13;30.63;99753.31;5068599;28;20049;-84
2022/06/08 05:56:17;;;;;;;3.70;1.98;;;;;;;22.33;30.96;99763.94;5018405;28;20091;-87
2022/06/08 05:58:49;;;;;;;2.65;2.03;;;;;;;22.19;30.86;99763.66;5035118;28;20460;-85
2022/06/08 06:01:17;;;;;;;3.65;2.20;;;;;;;21.98;31.28;99754.88;5019663;28;20055;-84
2022/06/08 06:03:44;;;;;;;3.42;1.95;;;;;;;22.15;30.65;99754.09;5071140;28;20076;-84
2022/06/08 06:06:12;;;;;;;2.45;1.95;;;;;;;22.31;30.52;99763.16;5027760;28;20053;-84
2022/06/08 06:08:41;;;;;;;7.75;2.15;;;;;;;22.43;30.65;99765.22;5059344;28;20033;-84
2022/06/08 06:11:15;;;;;;;3.30;1.77;;;;;;;22.56;30.22;99743.34;5043607;28;20029;-83
2022/06/08 06:13:45;;;;;;;2.42;1.80;;;;;;;22.78;30.17;99752.03;5039693;28;20049;-83
2022/06/08 06:16:16;;;;;;;4.82;2.08;;;;;;;22.96;29.97;99752.06;5041457;28;20052;-83
2022/06/08 06:19:33;;;;;;;;;;;;;;;;;;;;;
2022/06/08 06:22:19;;;;;;;2.30;1.73;;;;;;;22.29;29.27;99725.97;5055964;28;20053;-85
2022/06/08 06:25:46;;;;;;;2.70;1.70;;;;;;;22.51;29.29;99779.97;5044157;28;20073;-85
2022/06/08 06:28:50;;;;;;;2.88;1.88;;;;;;;22.27;29.61;99764.22;5035247;28;20060;-84
2022/06/08 06:32:07;;;;;;;2.30;2.10;;;;;;;22.65;29.54;99764.19;5038684;28;20061;-83
2022/06/08 06:34:43;;;;;;;;;;;;;;;22.60;29.67;99759.09;5070642;28;20057;-84
2022/06/08 06:37:11;;;;;;;5.00;1.70;;;;;;;22.62;29.37;99764.34;5033724;28;19947;-84
2022/06/08 06:39:39;;;;;;;3.03;1.70;;;;;;;22.47;29.39;99760.63;5016876;28;20095;-84
2022/06/08 06:42:23;;;;;;;6.75;1.70;;;;;;;22.39;29.36;99770.75;5033805;28;20077;-84
2022/06/08 06:45:27;;;;;;;2.55;1.83;;;;;;;22.21;29.72;99767.97;5032104;28;20065;-84
2022/06/08 06:48:01;;;;;;;4.00;1.55;;;;;;;22.35;29.68;99771.81;5014276;28;20064;-84
2022/06/08 06:50:31;;;;;;;6.43;1.95;;;;;;;22.34;29.91;99759.47;5033519;28;20061;-83
2022/06/08 06:53:01;;;;;;;9.68;2.28;;;;;;;22.47;29.36;99772.13;5033352;28;20500;-83
2022/06/08 06:55:38;;;;;;;2.33;1.38;;;;;;;22.54;28.00;99778.00;5055836;28;20489;-84
2022/06/08 06:58:16;;;;;;;2.50;1.60;;;;;;;22.59;28.15;99759.19;5067186;28;20053;-84
2022/06/08 07:00:44;;;;;;;4.47;1.73;;;;;;;22.37;28.47;99746.91;5033113;28;20053;-84
2022/06/08 07:03:13;;;;;;;;;;;;;;;22.13;28.63;99764.81;5033561;28;20057;-84
2022/06/08 07:05:43;;;;;;;2.75;1.60;;;;;;;22.04;28.27;99765.25;5033122;28;19933;-84
2022/06/08 07:08:10;;;;;;;1.50;1.40;;;;;;;21.93;28.12;99772.84;5034759;28;20049;-84
2022/06/08 07:10:38;;;;;;;2.53;1.60;;;;;;;21.85;27.48;99766.09;5033117;28;20059;-84
2022/06/08 07:13:06;;;;;;;2.38;1.55;;;;;;;21.93;27.82;99738.28;5032875;28;20053;-84
2022/06/08 07:15:35;;;;;;;3.08;1.50;;;;;;;22.29;27.43;99784.50;5041664;28;20048;-83
2022/06/08 07:18:02;;;;;;;6.30;1.30;;;;;;;21.94;27.80;99771.91;5053516;28;20055;-83
2022/06/08 07:20:32;;;;;;;3.30;1.20;;;;;;;21.90;27.79;99765.88;5031288;28;20049;-84
2022/06/08 07:23:00;;;;;;;2.83;1.50;;;;;;;21.82;27.54;99766.19;5052574;28;20040;-82
2022/06/08 07:25:27;;;;;;;2.08;1.38;;;;;;;21.63;27.37;99783.91;5053848;28;20500;-83
2022/06/08 07:27:54;;;;;;;4.97;1.55;;;;;;;21.38;27.65;99750.38;5049139;28;20451;-80
2022/06/08 07:30:22;;;;;;;1.65;1.10;;;;;;;21.67;26.72;99777.53;5043503;28;20421;-82
2022/06/08 07:32:50;;;;;;;11.35;1.60;;;;;;;21.61;27.10;99751.19;5032361;28;20458;-82
2022/06/08 07:35:19;;;;;;;5.72;1.45;;;;;;;21.94;26.73;99772.78;5032387;28;20053;-83
2022/06/08 07:37:46;;;;;;;18.58;1.77;;;;;;;22.19;26.28;99769.84;5033597;28;20060;-82
2022/06/08 07:40:13;;;;;;;3.13;1.52;;;;;;;22.14;25.89;99758.56;5033736;28;20065;-82
2022/06/08 07:42:40;;;;;;;4.25;1.33;;;;;;;22.16;26.44;99769.16;5033480;28;20067;-82
2022/06/08 07:45:10;;;;;;;4.35;1.50;;;;;;;22.04;26.49;99743.97;5032299;28;20045;-82
2022/06/08 07:49:36;;;;;;;2.17;1.52;;;;;;;22.37;26.50;99767.31;5033481;28;20099;-85
2022/06/08 07:50:28;;;;;;;2.97;1.58;;;;;;;22.65;26.42;99769.50;5033142;28;20505;-85
2022/06/08 07:52:55;;;;;;;1.52;1.35;;;;;;;22.48;26.45;99768.53;5033667;28;20053;-84
2022/06/08 07:55:22;;;;;;;2.80;1.65;;;;;;;22.23;26.49;99766.16;5065931;28;20501;-85
2022/06/08 07:57:50;;;;;;;3.92;2.03;;;;;;;22.27;26.66;99777.53;5033710;28;20045;-81
2022/06/08 08:00:19;;;;;;;1.63;1.20;;;;;;;22.28;26.52;99763.28;5033502;28;20049;-83
2022/06/08 08:02:46;;;;;;;3.63;1.73;;;;;;;22.43;26.24;99765.22;5034051;28;20519;-82
2022/06/08 08:05:15;;;;;;;2.15;1.10;;;;;;;22.47;25.72;99742.84;5042645;28;20140;-82
2022/06/08 08:07:43;;;;;;;2.92;1.60;;;;;;;22.37;26.44;99754.00;5033092;28;20395;-83
2022/06/08 08:10:15;;;;;;;3.92;2.10;;;;;;;22.45;26.33;99768.66;5032044;28;20053;-84
2022/06/08 08:12:43;;;;;;;4.18;2.00;;;;;;;22.38;26.13;99758.41;5033303;28;20058;-82
2022/06/08 08:15:10;;;;;;;3.97;1.48;;;;;;;22.58;26.27;99749.47;5031778;28;20053;-84
2022/06/08 08:17:38;;;;;;;2.45;1.35;;;;;;;22.62;25.70;99735.94;5034668;28;20057;-84
2022/06/08 08:20:06;;;;;;;3.92;1.60;;;;;;;22.75;25.67;99757.50;5032293;28;20053;-85
2022/06/08 08:22:33;;;;;;;2.03;1.60;;;;;;;22.68;26.24;99734.78;5031460;28;20516;-85
2022/06/08 08:25:00;;;;;;;2.40;1.70;;;;;;;22.77;26.48;99760.09;5031723;28;20140;-84
2022/06/08 08:27:29;;;;;;;2.67;1.85;;;;;;;22.49;26.43;99719.69;5032922;28;20473;-85
2022/06/08 08:29:56;;;;;;;5.20;1.30;;;;;;;22.61;26.09;99738.69;5031505;28;20460;-85
2022/06/08 08:32:23;;;;;;;6.90;2.65;;;;;;;22.72;26.69;99751.47;5032569;28;20054;-85
2022/06/08 08:34:50;;;;;;;3.63;2.00;;;;;;;22.75;26.57;99746.84;5031807;28;20053;-87
2022/06/08 08:37:17;;;;;;;3.60;1.60;;;;;;;22.62;26.89;99751.91;5032051;28;20057;-86
2022/06/08 08:39:44;;;;;;;2.53;1.50;;;;;;;22.56;25.96;99741.53;5031401;28;20067;-85
2022/06/08 08:42:21;;;;;;;3.55;1.70;;;;;;;22.84;25.90;99750.84;5033360;28;20053;-84
2022/06/08 08:45:03;;;;;;;4.53;1.27;;;;;;;22.97;26.14;99753.78;5031909;28;20091;-85
2022/06/08 08:47:59;;;;;;;3.15;1.42;;;;;;;22.82;25.91;99750.06;5033990;28;20057;-87
2022/06/08 08:50:39;;;;;;;2.35;1.10;;;;;;;22.53;25.69;99743.50;5017336;28;20518;-85
2022/06/08 08:53:16;;;;;;;2.97;1.50;;;;;;;22.46;25.93;99751.78;5033723;28;20057;-86
2022/06/08 08:55:52;;;;;;;5.72;2.95;;;;;;;22.48;25.90;99733.09;5034609;28;20045;-85
2022/06/08 08:58:27;;;;;;;5.30;1.52;;;;;;;22.43;26.01;99719.13;5065826;28;20125;-86
2022/06/08 09:01:23;;;;;;;4.45;1.67;;;;;;;22.56;26.00;99709.59;5033996;28;20041;-88
2022/06/08 09:04:22;;;;;;;3.70;2.00;;;;;;;22.91;25.61;99741.66;5015307;28;20069;-87
2022/06/08 09:06:49;;;;;;;;;;;;;;;22.82;25.94;99724.31;5029059;28;20045;-85
2022/06/08 09:09:26;;;;;;;6.13;2.50;;;;;;;22.83;24.96;99718.03;5034030;28;19925;-85
2022/06/08 09:11:53;;;;;;;5.65;2.10;;;;;;;22.74;24.72;99697.22;5033026;28;20064;-85
2022/06/08 09:14:59;;;;;;;2.77;1.67;;;;;;;22.86;24.77;99738.31;5034714;28;20497;-85
2022/06/08 09:17:32;;;;;;;5.50;1.55;;;;;;;22.82;24.64;99731.44;5064496;28;20801;-87
2022/06/08 09:20:20;;;;;;;5.93;2.42;;;;;;;23.06;25.14;99724.06;5033537;28;20060;-86
2022/06/08 09:22:52;;;;;;;4.67;1.20;;;;;;;23.08;24.55;99715.06;5037455;28;20050;-83
2022/06/08 09:25:34;;;;;;;7.53;1.70;;;;;;;23.15;24.25;99722.75;5033365;28;20048;-87
2022/06/08 09:28:02;;;;;;;1.63;1.40;;;;;;;23.08;23.75;99709.72;5033652;28;20058;-86
2022/06/08 09:30:47;;;;;;;3.45;1.67;;;;;;;23.07;23.86;99715.13;5015090;28;20103;-88
2022/06/08 09:33:22;;;;;;;6.32;1.60;;;;;;;23.16;24.02;99729.78;5035679;28;20107;-87
2022/06/08 09:35:56;;;;;;;5.72;1.63;;;;;;;23.02;24.04;99734.00;5033920;28;20064;-87
2022/06/08 09:38:26;;;;;;;3.30;1.40;;;;;;;23.10;24.13;99733.59;5033979;28;20053;-86
2022/06/08 09:41:34;;;;;;;;;;;;;;;;;;;;;
2022/06/08 09:44:27;;;;;;;4.85;1.30;;;;;;;23.25;23.43;99715.97;5036950;28;20111;-84
2022/06/08 09:53:42;;;;;;;2.15;1.25;;;;;;;23.14;24.31;99679.22;5076452;28;20066;-87
2022/06/08 09:56:40;;;;;;;3.75;1.30;;;;;;;23.26;24.21;99718.56;5047257;28;20050;-83
2022/06/08 09:59:19;;;;;;;3.58;1.42;;;;;;;23.16;24.30;99713.78;5048259;28;20080;-85
2022/06/08 10:02:01;;;;;;;1.88;1.40;;;;;;;23.04;23.73;99709.97;5055514;28;20057;-82
2022/06/08 10:04:43;;;;;;;2.00;1.50;;;;;;;23.13;23.54;99716.63;5056178;28;20045;-82
2022/06/08 10:07:10;;;;;;;1.77;1.30;;;;;;;23.18;23.38;99723.44;5055714;28;20049;-84
2022/06/08 10:09:43;;;;;;;1.77;1.10;;;;;;;23.02;22.95;99682.53;5055087;28;20055;-84
2022/06/08 10:12:43;;;;;;;3.70;1.13;;;;;;;23.39;23.09;99692.16;5053837;28;20052;-84
2022/06/08 10:15:30;;;;;;;;;;;;;;;23.29;23.47;99694.41;5055903;28;20053;-83
2022/06/08 10:18:36;;;;;;;5.47;1.70;;;;;;;23.06;23.40;99665.47;5054922;28;20027;-83
2022/06/08 10:21:14;;;;;;;3.15;1.50;;;;;;;23.35;22.59;99708.38;5053730;28;20152;-83
2022/06/08 10:24:11;;;;;;;3.78;1.48;;;;;;;23.14;23.03;99689.03;5055735;28;20559;-82
2022/06/08 10:26:44;;;;;;;3.38;1.45;;;;;;;23.37;23.26;99695.84;5055547;28;20055;-83
2022/06/08 10:29:14;;;;;;;2.33;1.27;;;;;;;23.48;23.15;99690.81;5055602;28;20055;-83
2022/06/08 10:31:47;;;;;;;;;;;;;;;23.15;23.56;99696.09;5055492;28;20049;-83
2022/06/08 10:34:21;;;;;;;2.85;1.48;;;;;;;23.10;23.98;99691.88;5055594;28;19932;-82
2022/06/08 10:36:58;;;;;;;1.58;1.48;;;;;;;23.06;23.72;99702.75;5055866;28;20466;-82
2022/06/08 10:39:27;;;;;;;1.50;1.30;;;;;;;22.89;23.60;99685.78;5055632;28;20065;-83
2022/06/08 10:45:23;;;;;;;3.25;2.03;;;;;;;22.91;24.55;99685.72;5054295;28;20083;-83
2022/06/08 10:47:58;;;;;;;7.00;1.58;;;;;;;23.04;24.43;99684.19;5054769;28;20056;-84
2022/06/08 10:50:35;;;;;;;4.00;2.38;;;;;;;23.20;24.12;99680.72;5053546;28;20053;-82
2022/06/08 10:56:51;;;;;;;5.60;2.40;;;;;;;23.56;23.97;99669.09;5033848;28;20081;-81
2022/06/08 10:59:25;;;;;;;4.05;1.80;;;;;;;23.70;24.02;99677.19;5053545;28;20080;-82
2022/06/08 11:02:15;;;;;;;6.32;4.13;;;;;;;23.70;24.40;99680.75;5053974;28;20075;-84
2022/06/08 11:05:07;;;;;;;2.88;1.48;;;;;;;23.62;23.25;99669.63;5034676;28;20587;-84
2022/06/08 11:08:00;;;;;;;4.35;1.95;;;;;;;23.59;23.82;99675.09;5034407;28;20053;-84
2022/06/08 11:10:51;;;;;;;6.95;3.50;;;;;;;23.58;24.33;99668.06;5034122;28;20057;-84
2022/06/08 11:13:18;;;;;;;2.92;1.60;;;;;;;23.60;24.21;99668.84;5034184;28;20144;-84
2022/06/08 11:15:48;;;;;;;3.03;1.58;;;;;;;23.64;24.70;99670.41;5034398;28;20061;-83
2022/06/08 11:18:17;;;;;;;;;;;;;;;23.58;24.70;99660.06;5036300;28;20501;-83
2022/06/08 11:21:35;;;;;;;4.25;2.55;;;;;;;23.67;24.52;99661.38;5040530;28;19928;-83
2022/06/08 11:24:14;;;;;;;2.80;1.50;;;;;;;23.49;24.20;99655.22;5042385;28;20068;-82
2022/06/08 11:26:45;;;;;;;4.40;1.83;;;;;;;23.52;24.13;99647.06;5035076;28;20501;-83
2022/06/08 11:29:18;;;;;;;2.88;1.70;;;;;;;23.63;23.81;99665.16;5034198;28;20057;-83
2022/06/08 11:31:55;;;;;;;4.20;1.88;;;;;;;23.49;23.88;99653.41;5033701;28;20092;-83
2022/06/08 11:34:34;;;;;;;3.15;1.88;;;;;;;23.62;23.49;99661.63;5033698;28;20500;-84
2022/06/08 11:37:40;;;;;;;2.97;1.70;;;;;;;23.64;23.45;99670.41;5034231;28;20144;-83
2022/06/08 11:40:19;;;;;;;3.58;1.80;;;;;;;23.68;23.00;99669.28;5034252;28;20061;-83
2022/06/08 11:42:53;;;;;;;3.53;1.48;;;;;;;23.80;22.64;99673.13;5034242;28;20119;-83
2022/06/08 11:45:40;;;;;;;2.88;1.75;;;;;;;23.89;22.62;99675.28;5033950;28;20136;-84
2022/06/08 11:48:25;;;;;;;2.72;1.60;;;;;;;23.88;22.53;99670.06;5033295;28;20421;-82
2022/06/08 11:50:55;;;;;;;4.85;2.00;;;;;;;23.96;22.99;99673.13;5033467;28;20057;-84
2022/06/08 11:53:26;;;;;;;4.93;1.77;;;;;;;23.88;23.00;99665.56;5033332;28;20470;-84
2022/06/08 11:56:13;;;;;;;2.97;2.13;;;;;;;23.83;22.77;99666.75;5033933;28;20080;-83
2022/06/08 11:58:48;;;;;;;6.45;2.05;;;;;;;23.82;23.11;99665.91;5032456;28;20045;-83
2022/06/08 12:01:20;;;;;;;4.82;2.42;;;;;;;23.83;23.28;99656.97;5033533;28;20480;-83
2022/06/08 12:03:54;;;;;;;3.47;1.83;;;;;;;23.84;22.82;99666.69;5033279;28;20049;-83
2022/06/08 12:06:32;;;;;;;3.13;1.90;;;;;;;23.80;22.98;99662.47;5032836;28;20099;-84
2022/06/08 12:09:05;;;;;;;4.05;1.70;;;;;;;23.65;22.98;99661.44;5032847;28;20472;-83
2022/06/08 12:11:39;;;;;;;4.63;2.28;;;;;;;23.69;23.53;99660.34;5032969;28;20425;-85
2022/06/08 12:14:27;;;;;;;4.47;1.63;;;;;;;23.76;23.06;99654.72;5032987;28;20081;-83
2022/06/08 12:17:03;;;;;;;3.92;2.67;;;;;;;23.80;23.15;99649.13;5033131;28;20053;-83
2022/06/08 12:19:57;;;;;;;2.45;1.52;;;;;;;23.84;23.24;99656.00;5033148;28;20493;-82
2022/06/08 12:22:30;;;;;;;5.60;2.08;;;;;;;23.73;23.61;99629.03;5033278;28;20156;-82
2022/06/08 12:25:21;;;;;;;5.97;2.28;;;;;;;23.71;23.13;99636.28;5033078;28;20050;-84
2022/06/08 12:27:56;;;;;;;3.58;2.05;;;;;;;23.71;23.09;99650.47;5032989;28;20057;-82
2022/06/08 12:30:26;;;;;;;7.70;1.90;;;;;;;23.67;22.55;99654.22;5048588;28;20408;-83
2022/06/08 12:33:00;;;;;;;3.03;1.80;;;;;;;23.62;22.22;99655.44;5031827;28;20580;-82